Time;durP1;ratioP1;P1;durP2;ratioP2;P2;SDS_P1;SDS_P2;PMS_P1;PMS_P2;Temp;Humidity;BMP_temperature;BMP_pressure;BME280_temperature;BME280_humidity;BME280_pressure;Samples;Min_cycle;Max_cycle;Signal;HPM_P1;HPM_P2
2023/04/07 00:07:51;;;;;;;10.30;8.77;;;;;;;;;;5009512;28;20447;-75
2023/04/07 00:11:00;;;;;;;10.07;9.07;;;;;;;;;;5016781;28;20506;-76
2023/04/07 00:13:40;;;;;;;10.73;9.63;;;;;;;;;;5013839;28;20447;-75
2023/04/07 00:16:12;;;;;;;14.17;10.20;;;;;;;;;;5016862;28;20986;-76
2023/04/07 00:18:53;;;;;;;10.37;9.33;;;;;;;;;;5015451;28;20452;-76
2023/04/07 00:21:33;;;;;;;9.53;8.57;;;;;;;;;;5015722;28;20453;-77
2023/04/07 00:24:13;;;;;;;10.93;9.90;;;;;;;;;;5015640;28;20479;-76
2023/04/07 00:27:02;;;;;;;10.63;9.50;;;;;;;;;;5015372;28;20467;-76
2023/04/07 00:30:00;;;;;;;;;;;;;;;;;;;;;
2023/04/07 00:32:57;;;;;;;;;;;;;;;;;;;;;
2023/04/07 00:35:48;;;;;;;9.90;9.00;;;;;;;;;;5012515;28;20562;-76
2023/04/07 00:38:41;;;;;;;10.07;9.07;;;;;;;;;;5016590;28;20455;-76
2023/04/07 00:41:30;;;;;;;9.40;8.60;;;;;;;;;;5012527;28;20454;-76
2023/04/07 00:44:10;;;;;;;10.63;9.53;;;;;;;;;;5018830;28;20490;-77
2023/04/07 00:46:44;;;;;;;10.23;9.20;;;;;;;;;;5020809;28;20475;-76
2023/04/07 00:52:34;;;;;;;9.70;8.80;;;;;;;;;;4990206;28;20439;-77
2023/04/07 00:55:11;;;;;;;9.20;8.30;;;;;;;;;;5021831;28;20455;-76
2023/04/07 00:57:50;;;;;;;10.10;9.00;;;;;;;;;;5017185;28;20455;-77
2023/04/07 01:00:30;;;;;;;10.20;9.13;;;;;;;;;;5018548;28;20775;-77
2023/04/07 01:03:19;;;;;;;9.13;8.03;;;;;;;;;;5018603;28;20439;-76
2023/04/07 01:08:44;;;;;;;9.10;8.30;;;;;;;;;;5025287;28;20943;-76
2023/04/07 01:11:45;;;;;;;10.37;9.17;;;;;;;;;;5027921;28;20478;-77
2023/04/07 01:14:19;;;;;;;8.93;8.10;;;;;;;;;;5028099;28;20494;-75
2023/04/07 01:17:11;;;;;;;11.43;9.23;;;;;;;;;;5028588;28;20472;-75
2023/04/07 01:22:54;;;;;;;9.67;8.70;;;;;;;;;;5014505;28;20436;-77
2023/04/07 01:25:45;;;;;;;10.07;9.07;;;;;;;;;;5022610;28;20578;-76
2023/04/07 01:28:29;;;;;;;10.70;8.33;;;;;;;;;;5022198;28;20513;-76
2023/04/07 01:31:12;;;;;;;9.63;8.40;;;;;;;;;;5022124;28;20518;-77
2023/04/07 01:33:56;;;;;;;11.10;8.20;;;;;;;;;;5019786;28;20467;-77
2023/04/07 01:36:32;;;;;;;10.30;9.33;;;;;;;;;;5018142;28;20471;-77
2023/04/07 01:39:15;;;;;;;10.00;9.00;;;;;;;;;;5028084;28;20485;-76
2023/04/07 01:44:36;;;;;;;10.30;9.30;;;;;;;;;;5040341;28;20474;-77
2023/04/07 01:47:22;;;;;;;;;;;;;;;;;;;;;
2023/04/07 01:50:03;;;;;;;10.40;9.17;;;;;;;;;;5041755;28;20458;-76
2023/04/07 01:52:43;;;;;;;9.80;8.90;;;;;;;;;;5041375;28;20450;-76
2023/04/07 01:58:07;;;;;;;10.30;9.20;;;;;;;;;;5040740;28;20910;-76
2023/04/07 02:01:06;;;;;;;10.53;9.43;;;;;;;;;;5039959;28;20442;-76
2023/04/07 02:03:54;;;;;;;9.67;8.70;;;;;;;;;;5041269;28;20450;-76
2023/04/07 02:06:36;;;;;;;10.07;9.07;;;;;;;;;;5043719;28;20538;-77
2023/04/07 02:15:15;;;;;;;10.70;9.60;;;;;;;;;;5043368;28;20941;-77
2023/04/07 02:18:01;;;;;;;10.77;9.47;;;;;;;;;;5037465;28;20508;-75
2023/04/07 02:20:49;;;;;;;11.17;9.80;;;;;;;;;;5026630;28;20466;-77
2023/04/07 02:26:16;;;;;;;10.13;9.13;;;;;;;;;;5023226;28;20996;-76
2023/04/07 02:31:39;;;;;;;10.10;9.03;;;;;;;;;;5022144;28;20526;-76
2023/04/07 02:37:18;;;;;;;10.70;9.60;;;;;;;;;;5019075;28;20464;-76
2023/04/07 02:42:55;;;;;;;10.23;9.10;;;;;;;;;;5015426;28;20527;-78
2023/04/07 02:45:30;;;;;;;10.80;9.40;;;;;;;;;;5024538;28;20503;-76
2023/04/07 02:48:09;;;;;;;11.33;10.17;;;;;;;;;;5023111;28;20462;-77
2023/04/07 02:51:14;;;;;;;;;;;;;;;;;;;;;
2023/04/07 02:54:09;;;;;;;11.27;10.17;;;;;;;;;;5019650;28;20439;-77
2023/04/07 02:56:50;;;;;;;10.80;9.70;;;;;;;;;;5019190;28;20567;-77
2023/04/07 02:59:28;;;;;;;11.87;10.73;;;;;;;;;;5016044;28;20443;-76
2023/04/07 03:02:10;;;;;;;9.63;8.60;;;;;;;;;;5015680;28;20505;-77
2023/04/07 03:04:54;;;;;;;9.07;8.23;;;;;;;;;;5016298;28;20570;-77
2023/04/07 03:07:31;;;;;;;10.63;9.50;;;;;;;;;;5015161;28;20554;-77
2023/04/07 03:10:06;;;;;;;11.70;10.37;;;;;;;;;;5014469;28;20463;-76
2023/04/07 03:15:48;;;;;;;12.73;10.50;;;;;;;;;;5013275;28;20526;-77
2023/04/07 03:21:41;;;;;;;10.73;9.40;;;;;;;;;;4973800;28;20432;-77
2023/04/07 03:24:42;;;;;;;;;;;;;;;;;;;;;
2023/04/07 03:27:39;;;;;;;11.70;10.07;;;;;;;;;;4994960;28;20471;-76
2023/04/07 03:30:43;;;;;;;14.17;11.10;;;;;;;;;;4994243;28;20892;-76
2023/04/07 03:33:34;;;;;;;12.93;9.90;;;;;;;;;;4987118;28;21083;-76
2023/04/07 03:36:16;;;;;;;11.77;9.00;;;;;;;;;;4995279;28;20472;-76
2023/04/07 03:39:16;;;;;;;10.90;9.90;;;;;;;;;;4995063;28;20462;-76
2023/04/07 03:41:50;;;;;;;12.27;10.03;;;;;;;;;;4995272;28;20448;-76
2023/04/07 03:44:41;;;;;;;10.53;9.53;;;;;;;;;;4994489;28;20471;-75
2023/04/07 03:50:27;;;;;;;12.00;10.80;;;;;;;;;;4961363;28;20432;-75
2023/04/07 03:53:19;;;;;;;;;;;;;;;;;;;;;
2023/04/07 03:55:52;;;;;;;10.83;9.70;;;;;;;;;;4994507;28;20448;-76
2023/04/07 03:58:33;;;;;;;11.70;10.43;;;;;;;;;;4994457;28;20448;-77
2023/04/07 04:01:10;;;;;;;11.63;10.43;;;;;;;;;;4994237;28;20498;-76
2023/04/07 04:06:35;;;;;;;10.40;9.40;;;;;;;;;;4989040;28;20496;-78
2023/04/07 04:09:19;;;;;;;11.47;10.30;;;;;;;;;;4997346;28;20507;-77
2023/04/07 04:17:27;;;;;;;11.03;9.90;;;;;;;;;;4989736;28;20463;-76
2023/04/07 04:20:03;;;;;;;12.50;10.60;;;;;;;;;;5014692;28;20451;-76
2023/04/07 04:22:36;;;;;;;11.23;9.70;;;;;;;;;;5014696;28;20455;-76
2023/04/07 04:25:21;;;;;;;12.00;10.60;;;;;;;;;;5014239;28;20506;-77
2023/04/07 04:28:13;;;;;;;11.40;10.20;;;;;;;;;;5013844;28;20451;-76
2023/04/07 04:31:05;;;;;;;12.03;10.73;;;;;;;;;;5013782;28;20466;-76
2023/04/07 04:33:34;;;;;;;11.07;10.07;;;;;;;;;;5013830;28;20455;-77
2023/04/07 04:36:12;;;;;;;12.17;10.93;;;;;;;;;;5013698;28;20551;-76
2023/04/07 04:44:54;;;;;;;13.50;10.67;;;;;;;;;;5014279;28;20448;-75
2023/04/07 04:56:55;;;;;;;;;;;;;;;;;;;;;
2023/04/07 04:59:56;;;;;;;13.20;11.80;;;;;;;;;;5020869;28;20439;-77
2023/04/07 05:02:34;;;;;;;12.90;11.60;;;;;;;;;;5020823;28;20458;-76
2023/04/07 05:12:04;;;;;;;11.87;10.70;;;;;;;;;;4870756;29;20468;-76
2023/04/07 05:14:31;;;;;;;13.00;11.80;;;;;;;;;;4974596;28;20456;-77
2023/04/07 05:17:29;;;;;;;11.00;9.90;;;;;;;;;;4976128;28;20933;-75
2023/04/07 05:20:14;;;;;;;11.83;10.73;;;;;;;;;;4911343;28;20465;-75
2023/04/07 05:23:10;;;;;;;12.30;11.10;;;;;;;;;;4980466;28;20479;-76
2023/04/07 05:25:46;;;;;;;12.77;11.47;;;;;;;;;;4961545;28;20496;-77
2023/04/07 05:31:36;;;;;;;12.73;11.50;;;;;;;;;;4994646;28;20440;-76
2023/04/07 05:37:12;;;;;;;12.67;11.37;;;;;;;;;;4989924;28;20507;-76
2023/04/07 05:42:57;;;;;;;11.80;10.03;;;;;;;;;;4993984;28;20459;-76
2023/04/07 05:45:37;;;;;;;12.10;10.13;;;;;;;;;;4997047;28;20480;-77
2023/04/07 05:48:18;;;;;;;12.77;11.47;;;;;;;;;;4997903;28;20958;-75
2023/04/07 05:50:51;;;;;;;12.23;11.03;;;;;;;;;;4998201;28;21067;-77
2023/04/07 05:53:26;;;;;;;11.77;10.57;;;;;;;;;;4999728;28;20463;-77
2023/04/07 05:56:03;;;;;;;12.63;11.20;;;;;;;;;;5000420;28;20472;-76
2023/04/07 05:58:42;;;;;;;12.20;11.00;;;;;;;;;;5003083;28;20459;-76
2023/04/07 06:01:11;;;;;;;12.27;10.90;;;;;;;;;;5005060;28;20456;-76
2023/04/07 06:03:43;;;;;;;13.97;12.67;;;;;;;;;;5007656;28;20444;-76
2023/04/07 06:06:36;;;;;;;14.87;13.33;;;;;;;;;;5007468;28;20488;-77
2023/04/07 06:09:26;;;;;;;40.40;30.80;;;;;;;;;;5007005;28;20452;-77
2023/04/07 06:12:07;;;;;;;15.80;14.10;;;;;;;;;;5006190;28;20444;-76
2023/04/07 06:17:25;;;;;;;12.93;11.57;;;;;;;;;;5002814;28;20501;-76
2023/04/07 06:23:10;;;;;;;13.53;12.00;;;;;;;;;;5017134;28;20422;-76
2023/04/07 06:25:52;;;;;;;12.40;10.90;;;;;;;;;;5015964;28;20475;-76
2023/04/07 06:28:44;;;;;;;13.07;11.67;;;;;;;;;;5015277;28;20463;-75
2023/04/07 06:31:44;;;;;;;;;;;;;;;;;;;;;
2023/04/07 06:34:20;;;;;;;12.67;11.47;;;;;;;;;;5015377;28;20436;-76
2023/04/07 06:36:49;;;;;;;14.10;11.73;;;;;;;;;;5015660;28;20544;-77
2023/04/07 06:39:22;;;;;;;13.20;11.90;;;;;;;;;;5016801;28;20460;-77
2023/04/07 06:42:00;;;;;;;12.00;10.80;;;;;;;;;;5019724;28;20451;-77
2023/04/07 06:44:33;;;;;;;13.43;12.10;;;;;;;;;;5016391;28;20509;-77
2023/04/07 06:47:16;;;;;;;12.27;11.17;;;;;;;;;;5016490;28;20483;-76
2023/04/07 06:49:46;;;;;;;13.50;12.10;;;;;;;;;;5017109;28;20463;-77
2023/04/07 06:52:17;;;;;;;13.53;12.13;;;;;;;;;;5016255;28;20970;-78
2023/04/07 06:54:56;;;;;;;12.70;11.50;;;;;;;;;;5018339;28;20714;-77
2023/04/07 06:57:24;;;;;;;13.87;12.50;;;;;;;;;;5016563;28;20991;-76
2023/04/07 07:00:01;;;;;;;14.10;12.30;;;;;;;;;;5017268;28;20458;-76
2023/04/07 07:02:31;;;;;;;14.07;12.57;;;;;;;;;;5015409;28;20479;-77
2023/04/07 07:05:07;;;;;;;13.07;11.80;;;;;;;;;;5016854;28;20478;-77
2023/04/07 07:07:35;;;;;;;12.47;11.23;;;;;;;;;;5017861;28;20998;-77
2023/04/07 07:10:09;;;;;;;12.57;11.17;;;;;;;;;;5020548;28;20479;-77
2023/04/07 07:12:49;;;;;;;13.33;11.93;;;;;;;;;;5027083;28;20437;-77
2023/04/07 07:15:22;;;;;;;14.33;12.30;;;;;;;;;;5032089;28;20459;-77
2023/04/07 07:17:51;;;;;;;15.63;12.47;;;;;;;;;;5020164;28;20458;-76
2023/04/07 07:20:28;;;;;;;12.53;11.30;;;;;;;;;;5006335;28;20468;-77
2023/04/07 07:22:57;;;;;;;12.87;11.60;;;;;;;;;;5019134;28;20439;-76
2023/04/07 07:25:37;;;;;;;12.73;11.43;;;;;;;;;;5024289;28;20475;-77
2023/04/07 07:28:06;;;;;;;12.17;11.07;;;;;;;;;;5021782;28;20455;-76
2023/04/07 07:30:36;;;;;;;12.53;11.33;;;;;;;;;;5024414;28;20511;-77
2023/04/07 07:33:29;;;;;;;13.53;12.23;;;;;;;;;;5027707;28;20451;-77
2023/04/07 07:36:14;;;;;;;13.00;11.17;;;;;;;;;;5024707;28;20464;-77
2023/04/07 07:38:53;;;;;;;15.60;12.37;;;;;;;;;;5024094;28;20473;-78
2023/04/07 07:41:33;;;;;;;15.07;12.93;;;;;;;;;;5023264;28;20538;-77
2023/04/07 07:50:24;;;;;;;12.67;11.50;;;;;;;;;;4987251;28;20468;-78
2023/04/07 07:56:02;;;;;;;12.97;11.57;;;;;;;;;;5016355;28;20776;-76
2023/04/07 07:58:34;;;;;;;13.60;12.30;;;;;;;;;;5017351;28;20526;-77
2023/04/07 08:04:12;;;;;;;13.43;11.60;;;;;;;;;;5010189;28;20451;-76
2023/04/07 08:06:41;;;;;;;13.07;11.77;;;;;;;;;;4980829;28;20991;-76
2023/04/07 08:12:20;;;;;;;12.73;11.53;;;;;;;;;;5013699;28;20445;-75
2023/04/07 08:14:55;;;;;;;12.23;11.07;;;;;;;;;;5020098;28;20455;-77
2023/04/07 08:17:28;;;;;;;12.20;11.10;;;;;;;;;;5012961;28;20473;-76
2023/04/07 08:20:09;;;;;;;13.27;12.07;;;;;;;;;;5001831;28;20460;-77
2023/04/07 08:22:50;;;;;;;11.90;10.90;;;;;;;;;;5005332;28;20987;-78
2023/04/07 08:25:21;;;;;;;13.07;11.77;;;;;;;;;;5005744;28;20454;-76
2023/04/07 08:27:51;;;;;;;11.93;10.80;;;;;;;;;;5004810;28;20484;-76
2023/04/07 08:30:27;;;;;;;11.10;9.93;;;;;;;;;;5005259;28;20967;-75
2023/04/07 08:32:57;;;;;;;10.90;9.90;;;;;;;;;;5003018;28;20486;-77
2023/04/07 08:35:36;;;;;;;10.33;9.37;;;;;;;;;;5003444;28;20452;-76
2023/04/07 08:38:13;;;;;;;8.53;7.83;;;;;;;;;;5004407;28;20486;-77
2023/04/07 08:40:56;;;;;;;9.67;8.70;;;;;;;;;;5002863;28;20433;-77
2023/04/07 09:05:40;;;;;;;10.23;8.30;;;;;;;;;;4766857;29;20448;-77
2023/04/07 09:08:23;;;;;;;9.43;8.53;;;;;;;;;;4832708;29;20496;-76
2023/04/07 09:10:51;;;;;;;9.07;8.30;;;;;;;;;;4920924;29;20454;-75
2023/04/07 09:13:30;;;;;;;10.20;9.30;;;;;;;;;;4933187;29;20807;-76
2023/04/07 09:16:00;;;;;;;8.93;8.13;;;;;;;;;;4933419;29;20502;-77
2023/04/07 09:18:38;;;;;;;9.00;8.20;;;;;;;;;;4945950;29;20481;-77
2023/04/07 09:21:22;;;;;;;14.43;10.67;;;;;;;;;;5012752;28;20461;-77
2023/04/07 09:24:09;;;;;;;8.77;8.07;;;;;;;;;;5013507;28;20543;-78
2023/04/07 09:32:58;;;;;;;9.13;8.00;;;;;;;;;;5005940;28;20443;-78
2023/04/07 09:38:43;;;;;;;9.70;8.77;;;;;;;;;;5001063;28;20915;-77
2023/04/07 09:41:32;;;;;;;9.53;8.63;;;;;;;;;;5010852;28;20493;-76
2023/04/07 09:44:10;;;;;;;8.60;7.80;;;;;;;;;;5017415;28;20451;-76
2023/04/07 09:46:48;;;;;;;8.90;8.20;;;;;;;;;;5016233;28;20550;-77
2023/04/07 09:49:24;;;;;;;8.90;7.93;;;;;;;;;;5019232;28;20545;-77
2023/04/07 09:52:10;;;;;;;8.37;7.57;;;;;;;;;;5020291;28;20464;-76
2023/04/07 09:54:50;;;;;;;8.93;8.13;;;;;;;;;;5018713;28;20459;-77
2023/04/07 10:03:19;;;;;;;9.80;8.17;;;;;;;;;;5013409;28;20447;-77
2023/04/07 10:08:38;;;;;;;9.00;8.30;;;;;;;;;;5014223;28;20432;-77
2023/04/07 10:11:06;;;;;;;9.17;8.27;;;;;;;;;;5018800;28;20444;-78
2023/04/07 10:13:35;;;;;;;8.30;7.33;;;;;;;;;;5018868;28;20458;-79
2023/04/07 10:16:07;;;;;;;9.17;8.37;;;;;;;;;;5017941;28;20469;-78
2023/04/07 10:18:37;;;;;;;8.93;8.17;;;;;;;;;;5002486;28;20559;-79
2023/04/07 10:21:08;;;;;;;9.33;8.30;;;;;;;;;;4998853;28;20459;-76
2023/04/07 10:23:44;;;;;;;8.93;8.23;;;;;;;;;;4996265;28;20448;-77
2023/04/07 10:26:16;;;;;;;7.97;7.27;;;;;;;;;;4995791;28;20479;-78
2023/04/07 10:28:49;;;;;;;8.47;7.67;;;;;;;;;;4996006;28;20470;-78
2023/04/07 10:31:19;;;;;;;9.10;7.17;;;;;;;;;;4997194;28;20471;-77
2023/04/07 10:33:55;;;;;;;8.70;7.80;;;;;;;;;;4996718;28;20793;-78
2023/04/07 10:36:36;;;;;;;9.10;8.30;;;;;;;;;;4998819;28;20467;-77
2023/04/07 10:39:22;;;;;;;8.70;7.90;;;;;;;;;;4997696;28;20456;-79
2023/04/07 10:41:53;;;;;;;8.53;7.73;;;;;;;;;;4997625;28;20456;-78
2023/04/07 10:44:40;;;;;;;9.03;8.17;;;;;;;;;;4996315;28;20456;-78
2023/04/07 10:47:11;;;;;;;8.80;8.00;;;;;;;;;;4999254;28;20486;-77
2023/04/07 10:49:56;;;;;;;8.93;7.73;;;;;;;;;;5000807;28;20994;-78
2023/04/07 10:52:38;;;;;;;8.53;7.73;;;;;;;;;;4974132;28;20510;-78
2023/04/07 10:55:29;;;;;;;8.07;7.30;;;;;;;;;;5002884;28;20479;-78
2023/04/07 10:58:15;;;;;;;7.93;7.23;;;;;;;;;;4999905;28;20455;-77
2023/04/07 11:00:43;;;;;;;8.30;7.60;;;;;;;;;;4996662;28;20547;-77
2023/04/07 11:03:15;;;;;;;7.93;7.17;;;;;;;;;;4997968;28;20437;-78
2023/04/07 11:05:51;;;;;;;8.07;7.33;;;;;;;;;;4996839;28;20507;-77
2023/04/07 11:08:35;;;;;;;8.13;7.43;;;;;;;;;;4996529;28;20504;-77
2023/04/07 11:11:15;;;;;;;8.60;7.80;;;;;;;;;;4998518;28;20479;-78
2023/04/07 11:13:46;;;;;;;7.70;7.00;;;;;;;;;;4998036;28;21011;-78
2023/04/07 11:16:27;;;;;;;8.07;7.27;;;;;;;;;;4997772;28;20983;-76
2023/04/07 11:19:08;;;;;;;8.43;7.63;;;;;;;;;;5015216;28;20439;-78
2023/04/07 11:22:08;;;;;;;7.07;6.47;;;;;;;;;;5017338;28;20459;-77
2023/04/07 11:24:43;;;;;;;7.80;7.10;;;;;;;;;;5001812;28;20462;-78
2023/04/07 11:27:23;;;;;;;8.17;7.37;;;;;;;;;;5017712;28;20474;-77
2023/04/07 11:30:00;;;;;;;7.97;7.27;;;;;;;;;;5017779;28;20455;-77
2023/04/07 11:32:32;;;;;;;9.33;7.30;;;;;;;;;;5016911;28;20475;-78
2023/04/07 11:35:04;;;;;;;7.40;6.70;;;;;;;;;;5016751;28;20510;-78
2023/04/07 11:37:32;;;;;;;11.93;6.80;;;;;;;;;;5017862;28;20512;-76
2023/04/07 11:40:05;;;;;;;8.67;7.80;;;;;;;;;;5017554;28;20450;-77
2023/04/07 11:42:39;;;;;;;7.80;7.10;;;;;;;;;;5017999;28;20892;-78
2023/04/07 11:45:23;;;;;;;8.93;8.03;;;;;;;;;;5018023;28;20455;-78
2023/04/07 11:47:51;;;;;;;8.43;7.37;;;;;;;;;;5017704;28;20471;-78
2023/04/07 11:50:41;;;;;;;7.93;7.07;;;;;;;;;;5017432;28;20530;-77
2023/04/07 11:53:28;;;;;;;7.33;6.63;;;;;;;;;;5016013;28;20462;-77
2023/04/07 11:56:06;;;;;;;8.80;7.03;;;;;;;;;;5020586;28;20498;-78
2023/04/07 11:59:03;;;;;;;7.87;7.27;;;;;;;;;;5019691;28;20456;-78
2023/04/07 12:01:56;;;;;;;7.90;7.20;;;;;;;;;;5019890;28;20471;-77
2023/04/07 12:04:31;;;;;;;8.00;7.30;;;;;;;;;;5016314;28;20543;-78
2023/04/07 12:07:11;;;;;;;13.33;9.10;;;;;;;;;;5015430;28;20471;-76
2023/04/07 12:09:40;;;;;;;9.63;8.60;;;;;;;;;;5015484;28;20459;-78
2023/04/07 12:12:14;;;;;;;10.57;9.57;;;;;;;;;;5017172;28;20543;-78
2023/04/07 12:15:00;;;;;;;8.50;7.80;;;;;;;;;;5018639;28;20466;-76
2023/04/07 12:17:29;;;;;;;11.47;8.70;;;;;;;;;;5014904;28;20485;-77
2023/04/07 12:19:59;;;;;;;10.13;8.97;;;;;;;;;;5000855;28;20565;-78
2023/04/07 12:22:27;;;;;;;9.30;8.30;;;;;;;;;;4998577;28;20459;-76
2023/04/07 12:24:58;;;;;;;9.27;8.47;;;;;;;;;;4999666;28;20444;-78
2023/04/07 12:27:27;;;;;;;7.27;6.60;;;;;;;;;;4999739;28;20484;-76
2023/04/07 12:30:08;;;;;;;7.30;5.60;;;;;;;;;;5001733;28;20445;-76
2023/04/07 12:32:39;;;;;;;4.87;4.43;;;;;;;;;;5000951;28;20434;-76
2023/04/07 12:35:15;;;;;;;4.57;3.60;;;;;;;;;;5002527;28;20487;-77
2023/04/07 12:37:45;;;;;;;3.23;2.93;;;;;;;;;;5001613;28;20455;-77
2023/04/07 12:40:18;;;;;;;4.77;2.33;;;;;;;;;;5000402;28;20480;-77
2023/04/07 12:42:46;;;;;;;2.90;2.70;;;;;;;;;;5000842;28;20463;-76
2023/04/07 12:45:26;;;;;;;3.37;3.07;;;;;;;;;;5000188;28;20460;-78
2023/04/07 12:47:55;;;;;;;4.70;4.30;;;;;;;;;;5004570;28;20484;-76
2023/04/07 12:50:24;;;;;;;6.03;5.57;;;;;;;;;;5000872;28;20452;-75
2023/04/07 12:52:52;;;;;;;7.33;6.63;;;;;;;;;;5001482;28;20452;-76
2023/04/07 12:55:24;;;;;;;6.90;6.30;;;;;;;;;;5000014;28;20480;-77
2023/04/07 12:57:55;;;;;;;7.20;6.50;;;;;;;;;;5000662;28;20927;-78
2023/04/07 13:00:30;;;;;;;4.30;4.00;;;;;;;;;;5000449;28;20444;-77
2023/04/07 13:03:02;;;;;;;4.93;4.43;;;;;;;;;;5001036;28;20456;-77
2023/04/07 13:05:31;;;;;;;3.80;3.50;;;;;;;;;;5004157;28;20567;-78
2023/04/07 13:11:23;;;;;;;5.40;5.00;;;;;;;;;;5009401;28;20484;-76
2023/04/07 13:14:03;;;;;;;4.50;4.20;;;;;;;;;;5011678;28;20467;-77
2023/04/07 13:16:36;;;;;;;4.60;4.20;;;;;;;;;;5008927;28;20472;-76
2023/04/07 13:19:08;;;;;;;3.53;3.33;;;;;;;;;;5008563;28;20516;-77
2023/04/07 13:21:37;;;;;;;4.10;3.80;;;;;;;;;;5006941;28;20507;-77
2023/04/07 13:26:57;;;;;;;4.37;4.07;;;;;;;;;;5001422;28;20448;-76
2023/04/07 13:29:28;;;;;;;4.43;4.03;;;;;;;;;;5010316;28;20476;-76
2023/04/07 13:32:11;;;;;;;4.50;3.67;;;;;;;;;;5006125;28;21302;-77
2023/04/07 13:34:58;;;;;;;3.80;3.50;;;;;;;;;;5006182;28;20452;-76
2023/04/07 13:37:26;;;;;;;4.47;4.17;;;;;;;;;;5005414;28;20476;-76
2023/04/07 13:39:58;;;;;;;3.60;3.30;;;;;;;;;;5005490;28;20433;-77
2023/04/07 13:42:28;;;;;;;4.20;3.80;;;;;;;;;;5004280;28;20951;-76
2023/04/07 13:44:55;;;;;;;5.10;3.53;;;;;;;;;;5005995;28;20535;-78
2023/04/07 13:47:28;;;;;;;4.73;3.97;;;;;;;;;;5003006;28;20472;-77
2023/04/07 13:49:58;;;;;;;7.40;4.67;;;;;;;;;;5002273;28;20444;-77
2023/04/07 13:52:27;;;;;;;4.97;4.57;;;;;;;;;;5002871;28;20510;-76
2023/04/07 13:54:56;;;;;;;5.30;4.53;;;;;;;;;;5002956;28;20535;-75
2023/04/07 13:57:24;;;;;;;5.30;4.80;;;;;;;;;;5002941;28;20457;-76
2023/04/07 13:59:52;;;;;;;5.73;5.10;;;;;;;;;;4999250;28;20452;-76
2023/04/07 14:02:19;;;;;;;5.53;5.03;;;;;;;;;;4999316;28;20801;-76
2023/04/07 14:04:49;;;;;;;5.57;5.17;;;;;;;;;;5000518;28;21165;-76
2023/04/07 14:07:19;;;;;;;6.53;5.93;;;;;;;;;;5000069;28;20555;-76
2023/04/07 14:09:47;;;;;;;6.30;5.90;;;;;;;;;;5000318;28;20895;-77
2023/04/07 14:12:15;;;;;;;6.03;5.33;;;;;;;;;;5001254;28;20436;-77
2023/04/07 14:14:49;;;;;;;5.57;5.20;;;;;;;;;;5001113;28;20825;-78
2023/04/07 14:17:18;;;;;;;6.00;5.50;;;;;;;;;;5000772;28;20460;-78
2023/04/07 14:19:59;;;;;;;5.93;5.30;;;;;;;;;;5001863;28;20534;-77
2023/04/07 14:22:37;;;;;;;4.80;4.40;;;;;;;;;;5001496;28;20498;-76
2023/04/07 14:25:13;;;;;;;5.70;5.30;;;;;;;;;;5000563;28;20464;-76
2023/04/07 14:27:46;;;;;;;6.80;5.20;;;;;;;;;;5000313;28;20451;-75
2023/04/07 14:30:16;;;;;;;8.10;4.90;;;;;;;;;;5000689;28;20459;-77
2023/04/07 14:32:46;;;;;;;6.10;5.23;;;;;;;;;;5000566;28;20456;-76
2023/04/07 14:35:17;;;;;;;5.70;5.30;;;;;;;;;;5001039;28;20452;-77
2023/04/07 14:37:47;;;;;;;4.83;4.33;;;;;;;;;;4999453;28;20448;-76
2023/04/07 14:40:20;;;;;;;5.43;5.03;;;;;;;;;;5003579;28;20862;-76
2023/04/07 14:43:22;;;;;;;6.07;5.67;;;;;;;;;;5005822;28;20460;-76
2023/04/07 14:45:58;;;;;;;6.47;5.77;;;;;;;;;;5007209;28;20479;-75
2023/04/07 14:48:31;;;;;;;6.00;5.50;;;;;;;;;;5004051;28;20511;-77
2023/04/07 14:51:20;;;;;;;5.63;5.20;;;;;;;;;;5005907;28;20460;-76
2023/04/07 14:56:34;;;;;;;6.37;5.87;;;;;;;;;;5003846;28;20479;-77
2023/04/07 14:59:02;;;;;;;6.20;5.60;;;;;;;;;;5000505;28;20445;-77
2023/04/07 15:01:31;;;;;;;6.17;5.70;;;;;;;;;;5007923;28;20441;-75
2023/04/07 15:04:06;;;;;;;5.83;5.43;;;;;;;;;;5013130;28;20471;-76
2023/04/07 15:06:37;;;;;;;5.80;5.23;;;;;;;;;;5010294;28;20494;-76
2023/04/07 15:09:06;;;;;;;5.90;5.50;;;;;;;;;;5010011;28;20476;-77
2023/04/07 15:11:34;;;;;;;6.50;5.90;;;;;;;;;;5010020;28;20512;-77
2023/04/07 15:14:03;;;;;;;6.33;5.83;;;;;;;;;;5003218;28;20440;-77
2023/04/07 15:16:34;;;;;;;5.33;4.93;;;;;;;;;;5002843;28;20468;-75
2023/04/07 15:19:05;;;;;;;5.73;5.30;;;;;;;;;;5021343;28;20530;-77
2023/04/07 15:21:36;;;;;;;6.70;6.17;;;;;;;;;;5024187;28;20531;-79
2023/04/07 15:24:11;;;;;;;8.90;5.80;;;;;;;;;;5022457;28;20456;-76
2023/04/07 15:26:39;;;;;;;6.10;5.37;;;;;;;;;;5021562;28;20562;-77
2023/04/07 15:29:07;;;;;;;6.70;5.80;;;;;;;;;;5022809;28;20570;-76
2023/04/07 15:31:35;;;;;;;8.47;7.50;;;;;;;;;;5021923;28;20447;-78
2023/04/07 15:34:07;;;;;;;6.80;6.20;;;;;;;;;;5021258;28;21010;-76
2023/04/07 15:36:40;;;;;;;7.20;6.57;;;;;;;;;;5024793;28;20539;-75
2023/04/07 15:39:14;;;;;;;8.33;7.73;;;;;;;;;;5024385;28;20585;-76
2023/04/07 15:41:50;;;;;;;7.50;6.87;;;;;;;;;;5023912;28;20601;-76
2023/04/07 15:44:38;;;;;;;6.87;6.17;;;;;;;;;;5023673;28;20440;-77
2023/04/07 15:47:11;;;;;;;7.50;6.80;;;;;;;;;;5024857;28;20495;-78
2023/04/07 15:49:41;;;;;;;7.90;7.20;;;;;;;;;;5023768;28;20486;-77
2023/04/07 15:52:27;;;;;;;7.20;6.60;;;;;;;;;;5022965;28;20509;-76
2023/04/07 15:54:59;;;;;;;7.53;6.73;;;;;;;;;;5027532;28;20463;-76
2023/04/07 15:57:31;;;;;;;6.93;6.43;;;;;;;;;;5026399;28;21058;-75
2023/04/07 16:00:07;;;;;;;6.87;6.37;;;;;;;;;;5025679;28;20443;-76
2023/04/07 16:02:41;;;;;;;7.33;6.63;;;;;;;;;;5022002;28;20439;-77
2023/04/07 16:05:16;;;;;;;7.03;6.33;;;;;;;;;;5022025;28;20884;-76
2023/04/07 16:07:51;;;;;;;7.10;5.97;;;;;;;;;;5022885;28;20861;-77
2023/04/07 16:10:21;;;;;;;6.40;5.90;;;;;;;;;;5023248;28;20501;-76
2023/04/07 16:12:51;;;;;;;6.40;5.90;;;;;;;;;;5022359;28;20416;-76
2023/04/07 16:15:22;;;;;;;7.60;6.90;;;;;;;;;;5025812;28;20428;-77
2023/04/07 16:17:55;;;;;;;7.30;5.97;;;;;;;;;;5015817;28;20444;-77
2023/04/07 16:20:23;;;;;;;6.43;5.90;;;;;;;;;;5005594;28;20526;-76
2023/04/07 16:22:51;;;;;;;6.87;6.07;;;;;;;;;;5003311;28;20458;-77
2023/04/07 16:25:21;;;;;;;7.07;5.60;;;;;;;;;;5003143;28;20459;-77
2023/04/07 16:27:49;;;;;;;8.07;5.40;;;;;;;;;;5002558;28;20464;-76
2023/04/07 16:30:17;;;;;;;7.80;5.43;;;;;;;;;;5003364;28;20472;-77
2023/04/07 16:32:50;;;;;;;5.33;4.70;;;;;;;;;;5002841;28;20452;-77
2023/04/07 16:35:30;;;;;;;4.90;4.50;;;;;;;;;;5005917;28;20843;-76
2023/04/07 16:38:04;;;;;;;5.50;5.00;;;;;;;;;;5003280;28;20448;-77
2023/04/07 16:40:43;;;;;;;7.73;5.03;;;;;;;;;;5005868;28;20475;-76
2023/04/07 16:43:16;;;;;;;5.67;5.20;;;;;;;;;;5006093;28;20511;-77
2023/04/07 16:46:14;;;;;;;5.70;5.30;;;;;;;;;;5007510;28;20503;-78
2023/04/07 16:48:51;;;;;;;4.80;4.40;;;;;;;;;;5005210;28;20483;-78
2023/04/07 16:51:23;;;;;;;5.37;4.73;;;;;;;;;;5005722;28;20455;-77
2023/04/07 16:53:56;;;;;;;5.10;4.60;;;;;;;;;;5005036;28;20452;-77
2023/04/07 16:56:25;;;;;;;5.60;5.13;;;;;;;;;;5006497;28;20483;-76
2023/04/07 16:58:55;;;;;;;5.63;5.23;;;;;;;;;;5005106;28;20532;-77
2023/04/07 17:01:27;;;;;;;5.87;5.37;;;;;;;;;;5005528;28;20460;-75
2023/04/07 17:03:59;;;;;;;6.37;5.87;;;;;;;;;;5007124;28;20488;-77
2023/04/07 17:06:29;;;;;;;6.50;6.00;;;;;;;;;;5003835;28;20486;-77
2023/04/07 17:08:56;;;;;;;6.43;5.93;;;;;;;;;;5005443;28;20569;-76
2023/04/07 17:11:47;;;;;;;6.83;6.17;;;;;;;;;;5007182;28;20452;-77
2023/04/07 17:14:36;;;;;;;8.27;6.33;;;;;;;;;;5005898;28;20460;-76
2023/04/07 17:17:15;;;;;;;6.80;6.20;;;;;;;;;;5006592;28;20488;-77
2023/04/07 17:19:48;;;;;;;7.37;6.63;;;;;;;;;;5024679;28;20423;-77
2023/04/07 17:25:06;;;;;;;8.77;7.40;;;;;;;;;;5024404;28;20527;-77
2023/04/07 17:28:00;;;;;;;;;;;;;;;;;;;;;
2023/04/07 17:30:35;;;;;;;7.97;7.17;;;;;;;;;;5023541;28;20482;-76
2023/04/07 17:33:03;;;;;;;8.13;7.40;;;;;;;;;;5023646;28;20446;-76
2023/04/07 17:35:32;;;;;;;8.00;7.30;;;;;;;;;;5023015;28;20471;-76
2023/04/07 17:38:08;;;;;;;7.40;6.80;;;;;;;;;;5022501;28;20455;-75
2023/04/07 17:40:44;;;;;;;6.40;5.90;;;;;;;;;;5022457;28;20450;-76
2023/04/07 17:43:14;;;;;;;5.80;5.43;;;;;;;;;;5021484;28;20451;-77
2023/04/07 17:45:47;;;;;;;5.50;5.10;;;;;;;;;;5021883;28;20480;-77
2023/04/07 17:48:21;;;;;;;5.57;5.17;;;;;;;;;;5024503;28;20415;-77
2023/04/07 17:51:13;;;;;;;;;;;;;;;;;;;;;
2023/04/07 17:54:03;;;;;;;5.90;5.50;;;;;;;;;;5023448;28;20439;-78
2023/04/07 17:56:43;;;;;;;5.33;5.03;;;;;;;;;;5020699;28;20550;-76
2023/04/07 17:59:34;;;;;;;5.73;5.23;;;;;;;;;;5016704;28;21034;-76
2023/04/07 18:02:09;;;;;;;5.33;4.93;;;;;;;;;;5023692;28;20450;-77
2023/04/07 18:04:44;;;;;;;5.50;5.10;;;;;;;;;;5023899;28;20428;-77
2023/04/07 18:07:29;;;;;;;6.00;5.60;;;;;;;;;;5025341;28;20521;-77
2023/04/07 18:10:00;;;;;;;7.27;6.77;;;;;;;;;;5022065;28;20482;-79
2023/04/07 18:12:31;;;;;;;5.90;5.30;;;;;;;;;;5021432;28;20461;-77
2023/04/07 18:15:00;;;;;;;5.40;5.00;;;;;;;;;;5019832;28;20574;-77
2023/04/07 18:17:27;;;;;;;5.83;5.43;;;;;;;;;;5018227;28;20492;-78
2023/04/07 18:20:12;;;;;;;5.00;4.50;;;;;;;;;;5009070;28;20900;-77
2023/04/07 18:28:24;;;;;;;4.40;4.00;;;;;;;;;;4998545;28;20895;-77
2023/04/07 18:31:05;;;;;;;3.27;3.07;;;;;;;;;;5003024;28;20495;-77